Huntsville, Canada
Current Conditions -  °F | °C
As of 7:30 AM on Monday 24 Nov 2014 (Local Time) from CYQA Reporting Station
Light Rain Light Rain  
Wind Chill: 39°   Ceiling: 800
Heat Index: 46°   Visibility: 9mi
Dew Point: 45°   Wind: 17mph
Humidity: 93%   Direction: 150°SSE
Pressure: 29.11"   Gusts: 25mph
Location:  45.33°N, 79.22°W
Report Text: CYQA 241230Z AUTO 15015G22KT 9SM -RA BKN008 OVC012 08/07 A2911 RMK PRESFR SLP863 DENSITY ALT 1200FT
Loading
Personal Weather Stations






























Interactive Weather Map New forecast layout! Learn more

10-Day Weather Forecast

Advertisements
Track Severe Weather on mobile